createdAt,value
2023-02-16T00:01:33.107Z,90.33
2023-02-16T00:03:59.969Z,89.75
2023-02-16T00:06:29.237Z,89.17
2023-02-16T00:08:57.124Z,87.76
2023-02-16T00:11:30.767Z,87.76
2023-02-16T00:13:58.989Z,87.09
2023-02-16T00:16:25.822Z,86.71
2023-02-16T00:18:53.004Z,86.82
2023-02-16T00:21:21.136Z,87.95
2023-02-16T00:23:48.705Z,87.77
2023-02-16T00:26:19.205Z,88.03
2023-02-16T00:28:50.152Z,88.27
2023-02-16T00:31:21.450Z,88.24
2023-02-16T00:33:49.970Z,87.75
2023-02-16T00:36:20.158Z,87.33
2023-02-16T00:38:47.006Z,86.28
2023-02-16T00:41:19.343Z,85.46
2023-02-16T00:43:46.246Z,84.75
2023-02-16T00:46:13.155Z,84.30
2023-02-16T00:48:41.262Z,84.59
2023-02-16T00:51:24.877Z,84.75
2023-02-16T00:53:52.077Z,86.87
2023-02-16T00:56:20.996Z,88.75
2023-02-16T00:58:52.366Z,89.32
2023-02-16T01:01:31.980Z,89.69
2023-02-16T01:04:07.695Z,89.20
2023-02-16T01:06:34.517Z,88.83
2023-02-16T01:09:13.662Z,88.52
2023-02-16T01:11:40.489Z,88.35
2023-02-16T01:14:13.224Z,87.97
2023-02-16T01:16:42.716Z,88.18
2023-02-16T01:19:13.098Z,87.91
2023-02-16T01:21:40.423Z,87.40
2023-02-16T01:24:08.244Z,87.17
2023-02-16T01:26:43.565Z,87.83
2023-02-16T01:29:15.707Z,88.20
2023-02-16T01:31:43.764Z,88.15
2023-02-16T01:34:13.632Z,87.34
2023-02-16T01:36:46.677Z,86.35
2023-02-16T01:39:20.084Z,85.95
2023-02-16T01:42:04.233Z,85.88
2023-02-16T01:44:41.273Z,85.74
2023-02-16T01:47:35.092Z,85.37
2023-02-16T01:50:17.661Z,85.12
2023-02-16T01:52:56.549Z,84.87
2023-02-16T01:55:31.002Z,84.77
2023-02-16T01:58:05.491Z,85.48
2023-02-16T02:01:24.770Z,87.97
2023-02-16T02:03:55.220Z,89.46
2023-02-16T02:06:34.122Z,89.95
2023-02-16T02:09:08.120Z,89.44
2023-02-16T02:11:45.640Z,88.82
2023-02-16T02:14:20.621Z,87.89
2023-02-16T02:16:59.048Z,87.88
2023-02-16T02:19:28.466Z,88.86
2023-02-16T02:22:30.451Z,89.88
2023-02-16T02:25:41.198Z,90.19
2023-02-16T02:28:19.508Z,90.29
2023-02-16T02:31:02.514Z,89.94
2023-02-16T02:33:50.096Z,88.74
2023-02-16T02:36:34.009Z,89.32
2023-02-16T02:39:25.790Z,89.12
2023-02-16T02:42:04.449Z,87.53
2023-02-16T02:44:47.214Z,87.58
2023-02-16T02:47:14.372Z,87.58
2023-02-16T02:49:50.104Z,87.41
2023-02-16T02:52:18.279Z,87.46
2023-02-16T02:54:47.966Z,87.34
2023-02-16T02:57:23.255Z,87.10
2023-02-16T03:00:01.626Z,86.52
2023-02-16T03:02:35.676Z,86.67
2023-02-16T03:05:09.236Z,86.02
2023-02-16T03:07:39.212Z,85.49
2023-02-16T03:10:07.777Z,84.87
2023-02-16T03:12:36.335Z,84.32
2023-02-16T03:15:06.300Z,84.06
2023-02-16T03:17:38.272Z,84.33
2023-02-16T03:20:12.271Z,84.04
2023-02-16T03:22:40.670Z,84.02
2023-02-16T03:25:07.664Z,83.97
2023-02-16T03:27:40.495Z,84.25
2023-02-16T03:30:12.644Z,84.29
2023-02-16T03:32:40.369Z,84.21
2023-02-16T03:35:08.075Z,84.08
2023-02-16T03:37:35.578Z,84.80
2023-02-16T03:40:09.786Z,84.56
2023-02-16T03:42:37.027Z,84.39
2023-02-16T03:45:04.532Z,84.90
2023-02-16T03:47:36.436Z,85.13
2023-02-16T03:50:10.677Z,84.46
2023-02-16T03:52:38.628Z,85.90
2023-02-16T03:55:06.482Z,87.26
2023-02-16T03:57:33.544Z,88.49
2023-02-16T04:00:00.748Z,88.50
2023-02-16T04:02:28.976Z,88.47
2023-02-16T04:04:57.265Z,88.85
2023-02-16T04:07:24.373Z,88.14
2023-02-16T04:09:51.172Z,86.52
2023-02-16T04:12:17.989Z,85.01
2023-02-16T04:14:44.826Z,84.47
2023-02-16T04:17:11.818Z,83.78
2023-02-16T04:19:38.624Z,83.93
2023-02-16T04:22:06.826Z,84.29
2023-02-16T04:24:33.734Z,84.06
2023-02-16T04:27:00.525Z,84.05
2023-02-16T04:29:27.619Z,84.57
2023-02-16T04:31:55.728Z,84.35
2023-02-16T04:34:23.417Z,83.78
2023-02-16T04:36:50.620Z,83.40
2023-02-16T04:39:19.335Z,83.84
2023-02-16T04:41:46.255Z,83.39
2023-02-16T04:44:13.429Z,82.90
2023-02-16T04:46:40.562Z,83.54
2023-02-16T04:49:07.450Z,82.97
2023-02-16T04:51:34.308Z,83.47
2023-02-16T04:54:01.252Z,83.33
2023-02-16T04:56:29.351Z,83.42
2023-02-16T04:58:56.284Z,83.79
2023-02-16T05:01:27.161Z,83.38
2023-02-16T05:03:54.916Z,83.21
2023-02-16T05:06:21.923Z,83.88
2023-02-16T05:08:50.368Z,83.77
2023-02-16T05:11:17.195Z,83.81
2023-02-16T05:13:45.356Z,84.35
2023-02-16T05:16:12.394Z,84.17
2023-02-16T05:18:39.248Z,84.54
2023-02-16T05:21:06.410Z,84.93
2023-02-16T05:23:33.605Z,85.03
2023-02-16T05:26:07.484Z,85.70
2023-02-16T05:28:34.384Z,85.13
2023-02-16T05:31:09.005Z,84.90
2023-02-16T05:34:16.521Z,85.52
2023-02-16T05:36:43.478Z,84.61
2023-02-16T05:39:10.339Z,84.90
2023-02-16T05:41:38.094Z,84.00
2023-02-16T05:44:07.681Z,83.37
2023-02-16T05:46:38.790Z,83.95
2023-02-16T05:49:07.753Z,83.65
2023-02-16T05:51:35.586Z,83.55
2023-02-16T05:54:03.013Z,83.50
2023-02-16T05:56:30.079Z,84.17
2023-02-16T05:58:58.889Z,83.78
2023-02-16T06:01:27.226Z,83.14
2023-02-16T06:04:00.001Z,83.04
2023-02-16T06:06:33.014Z,83.71
2023-02-16T06:12:50.490Z,83.55
2023-02-16T06:15:19.979Z,83.87
2023-02-16T06:17:47.076Z,83.86
2023-02-16T06:20:15.695Z,84.18
2023-02-16T06:22:42.738Z,84.72
2023-02-16T06:25:10.611Z,84.61
2023-02-16T06:27:37.506Z,84.70
2023-02-16T06:30:07.499Z,84.06
2023-02-16T06:32:34.444Z,84.48
2023-02-16T06:35:01.491Z,83.78
2023-02-16T06:37:30.507Z,83.89
2023-02-16T06:39:57.320Z,84.42
2023-02-16T06:42:24.268Z,84.43
2023-02-16T06:44:51.231Z,83.33
2023-02-16T06:47:19.264Z,93.59
2023-02-16T06:49:46.194Z,95.98
2023-02-16T06:52:13.208Z,96.10
2023-02-16T06:54:41.533Z,89.03
2023-02-16T06:57:08.685Z,84.77
2023-02-16T06:59:35.514Z,80.80
2023-02-16T07:02:03.913Z,79.79
2023-02-16T07:05:45.533Z,77.68
2023-02-16T07:08:56.171Z,74.78
2023-02-16T07:16:12.511Z,73.77
2023-02-16T07:33:02.159Z,62.16
2023-02-16T07:35:29.275Z,60.70
2023-02-16T07:37:56.724Z,59.96
2023-02-16T07:40:23.660Z,58.11
2023-02-16T07:42:51.104Z,56.59
2023-02-16T07:45:18.077Z,55.52
2023-02-16T07:47:45.206Z,55.19
2023-02-16T07:53:27.437Z,52.04
2023-02-16T07:55:58.737Z,50.73
2023-02-16T07:59:08.334Z,51.52
2023-02-16T08:08:20.832Z,49.40
2023-02-16T08:11:21.599Z,47.38
2023-02-16T08:22:52.433Z,43.33
2023-02-16T08:25:59.168Z,42.59
2023-02-16T08:28:27.953Z,43.54
2023-02-16T08:31:03.266Z,43.71
2023-02-16T08:33:32.379Z,43.64
2023-02-16T08:36:30.880Z,43.82
2023-02-16T08:40:17.141Z,44.92
2023-02-16T08:42:47.681Z,46.44
2023-02-16T08:49:29.331Z,47.48
2023-02-16T08:56:31.571Z,49.10
2023-02-16T09:04:31.279Z,47.84
2023-02-16T09:07:14.745Z,47.56
2023-02-16T09:09:42.912Z,48.24
2023-02-16T09:12:11.565Z,48.90
2023-02-16T09:14:52.159Z,50.25
2023-02-16T09:17:21.631Z,47.44
2023-02-16T09:20:02.753Z,45.44
2023-02-16T09:23:14.104Z,43.85
2023-02-16T09:25:41.705Z,43.95
2023-02-16T09:28:10.565Z,42.05
2023-02-16T09:30:38.913Z,44.02
2023-02-16T09:33:06.397Z,43.45
2023-02-16T09:35:33.466Z,44.71
2023-02-16T09:38:00.326Z,43.48
2023-02-16T09:40:28.803Z,41.54
2023-02-16T09:43:08.645Z,41.87
2023-02-16T09:45:44.911Z,42.03
2023-02-16T09:48:32.820Z,41.35
2023-02-16T09:51:03.428Z,40.74
2023-02-16T09:53:37.213Z,39.54
2023-02-16T09:56:20.173Z,39.31
2023-02-16T09:58:56.092Z,37.78
2023-02-16T10:01:34.986Z,37.91
2023-02-16T10:04:26.953Z,39.09
2023-02-16T10:07:44.162Z,45.18
2023-02-16T10:10:21.437Z,46.02
2023-02-16T10:12:56.417Z,46.74
2023-02-16T10:15:29.014Z,46.98
2023-02-16T10:18:33.930Z,43.80
2023-02-16T10:21:18.380Z,39.32
2023-02-16T10:23:51.073Z,36.98
2023-02-16T10:26:34.815Z,35.23
2023-02-16T10:32:42.133Z,32.66
2023-02-16T10:35:52.575Z,32.64
2023-02-16T10:38:46.912Z,34.18
2023-02-16T10:44:53.960Z,33.86
2023-02-16T10:47:40.273Z,33.47
2023-02-16T11:02:53.927Z,30.82
2023-02-16T11:05:36.085Z,30.11
2023-02-16T11:12:42.406Z,29.56
2023-02-16T11:15:24.926Z,29.33
2023-02-16T11:27:27.645Z,27.51
2023-02-16T11:33:28.187Z,26.87
2023-02-16T11:37:04.574Z,27.47
2023-02-16T11:39:46.682Z,25.80
2023-02-16T11:42:29.272Z,24.90
2023-02-16T11:45:01.463Z,25.63
2023-02-16T11:52:26.158Z,25.42
2023-02-16T11:58:34.252Z,26.11
2023-02-16T12:01:20.888Z,25.90
2023-02-16T12:04:07.264Z,25.72
2023-02-16T12:07:27.189Z,28.08
2023-02-16T12:10:08.922Z,32.10
2023-02-16T12:12:49.437Z,34.63
2023-02-16T12:15:28.355Z,36.18
2023-02-16T12:18:26.753Z,38.34
2023-02-16T12:21:07.698Z,39.01
2023-02-16T12:23:42.289Z,39.32
2023-02-16T12:26:36.529Z,39.87
2023-02-16T12:29:23.317Z,40.24
2023-02-16T12:32:15.137Z,39.58
2023-02-16T12:35:01.310Z,40.63
2023-02-16T12:37:42.932Z,41.78
2023-02-16T12:40:28.537Z,41.84
2023-02-16T12:43:28.075Z,41.76
2023-02-16T12:46:01.286Z,41.69
2023-02-16T12:48:45.665Z,41.55
2023-02-16T12:51:22.034Z,41.67
2023-02-16T12:53:59.916Z,42.35
2023-02-16T12:56:36.447Z,44.36
2023-02-16T12:59:24.986Z,43.56
2023-02-16T13:01:55.825Z,44.36
2023-02-16T13:04:38.637Z,43.56
2023-02-16T13:07:15.315Z,44.99
2023-02-16T13:09:58.592Z,44.73
2023-02-16T13:12:34.634Z,44.35
2023-02-16T13:15:14.126Z,43.79
2023-02-16T13:17:48.830Z,43.84
2023-02-16T13:20:22.310Z,44.05
2023-02-16T13:23:28.812Z,45.00
2023-02-16T13:26:35.763Z,44.58
2023-02-16T13:29:32.208Z,44.31
2023-02-16T13:32:24.079Z,43.54
2023-02-16T13:35:36.739Z,43.69
2023-02-16T13:38:34.347Z,43.51
2023-02-16T13:42:01.745Z,43.32
2023-02-16T13:44:41.370Z,42.96
2023-02-16T13:47:19.544Z,42.80
2023-02-16T13:49:47.738Z,43.09
2023-02-16T13:52:32.954Z,43.15
2023-02-16T13:55:03.293Z,43.15
2023-02-16T13:58:00.978Z,43.21
2023-02-16T14:00:35.002Z,43.66
2023-02-16T14:03:12.411Z,43.72
2023-02-16T14:05:43.515Z,43.69
2023-02-16T14:08:23.683Z,43.21
2023-02-16T14:11:10.557Z,43.51
2023-02-16T14:13:48.598Z,43.71
2023-02-16T14:16:32.816Z,44.08
2023-02-16T14:19:04.801Z,43.74
2023-02-16T14:21:39.124Z,43.80
2023-02-16T14:24:13.372Z,44.11
2023-02-16T14:31:36.268Z,43.75
2023-02-16T14:39:01.969Z,43.81
2023-02-16T14:41:40.702Z,43.35
2023-02-16T14:53:44.977Z,42.86
2023-02-16T14:56:44.565Z,43.01
2023-02-16T15:00:00.279Z,42.85
2023-02-16T15:02:42.130Z,42.36
2023-02-16T15:05:32.788Z,42.87
2023-02-16T15:09:12.345Z,43.13
2023-02-16T15:12:17.086Z,44.18
2023-02-16T15:14:57.194Z,43.94
2023-02-16T15:17:49.937Z,43.94
2023-02-16T15:20:31.880Z,42.87
2023-02-16T15:23:02.211Z,43.23
2023-02-16T15:25:33.990Z,43.11
2023-02-16T15:28:19.021Z,43.57
2023-02-16T15:30:51.171Z,43.68
2023-02-16T15:33:33.044Z,44.41
2023-02-16T15:36:03.975Z,43.84
2023-02-16T15:38:32.855Z,43.46
2023-02-16T15:41:03.262Z,44.05
2023-02-16T15:43:36.023Z,43.63
2023-02-16T15:46:07.687Z,43.85
2023-02-16T15:48:36.776Z,43.66
2023-02-16T15:51:22.192Z,44.05
2023-02-16T15:53:53.848Z,43.75
2023-02-16T15:56:38.656Z,43.81
2023-02-16T15:59:28.881Z,44.42
2023-02-16T16:02:00.799Z,44.48
2023-02-16T16:04:30.058Z,44.74
2023-02-16T16:06:58.208Z,44.80
2023-02-16T16:09:28.175Z,45.31
2023-02-16T16:11:59.125Z,44.83
2023-02-16T16:14:29.370Z,45.37
2023-02-16T16:16:56.961Z,45.32
2023-02-16T16:19:34.364Z,45.98
2023-02-16T16:22:02.711Z,46.25
2023-02-16T16:24:33.951Z,46.26
2023-02-16T16:27:06.592Z,45.76
2023-02-16T16:29:40.577Z,46.67
2023-02-16T16:32:19.380Z,46.32
2023-02-16T16:34:47.420Z,46.46
2023-02-16T16:37:27.037Z,46.81
2023-02-16T16:40:04.392Z,46.39
2023-02-16T16:42:32.321Z,46.92
2023-02-16T16:45:06.990Z,47.47
2023-02-16T16:47:41.477Z,47.81
2023-02-16T16:50:32.863Z,48.17
2023-02-16T16:53:02.626Z,48.40
2023-02-16T16:55:34.467Z,50.11
2023-02-16T16:58:05.705Z,50.63
2023-02-16T17:00:37.369Z,50.69
2023-02-16T17:03:08.810Z,50.92
2023-02-16T17:05:36.623Z,50.83
2023-02-16T17:08:04.999Z,51.09
2023-02-16T17:10:32.144Z,51.01
2023-02-16T17:13:00.491Z,51.31
2023-02-16T17:15:36.225Z,51.12
2023-02-16T17:18:05.719Z,52.92
2023-02-16T17:20:33.041Z,53.04
2023-02-16T17:23:00.406Z,54.37
2023-02-16T17:25:27.136Z,53.44
2023-02-16T17:27:53.903Z,52.82
2023-02-16T17:30:21.008Z,53.84
2023-02-16T17:36:26.591Z,55.23
2023-02-16T17:42:17.934Z,56.37
2023-02-16T17:44:47.312Z,56.20
2023-02-16T17:47:17.100Z,55.40
2023-02-16T17:49:45.319Z,55.60
2023-02-16T17:52:13.357Z,57.24
2023-02-16T17:54:40.506Z,57.93
2023-02-16T17:57:07.630Z,57.27
2023-02-16T17:59:34.526Z,57.64
2023-02-16T18:02:01.390Z,58.16
2023-02-16T18:04:28.241Z,58.98
2023-02-16T18:06:56.523Z,59.49
2023-02-16T18:09:23.405Z,59.17
2023-02-16T18:11:51.030Z,60.74
2023-02-16T18:14:19.825Z,61.48
2023-02-16T18:16:52.391Z,62.65
2023-02-16T18:19:19.540Z,62.15
2023-02-16T18:21:47.287Z,62.42
2023-02-16T18:24:17.561Z,63.07
2023-02-16T18:26:44.580Z,63.32
2023-02-16T18:29:12.491Z,63.45
2023-02-16T18:31:39.790Z,64.10
2023-02-16T18:34:07.113Z,63.91
2023-02-16T18:36:34.954Z,65.25
2023-02-16T18:39:12.602Z,65.54
2023-02-16T18:42:02.176Z,65.90
2023-02-16T18:44:29.690Z,65.28
2023-02-16T18:46:56.469Z,63.21
2023-02-16T18:49:23.289Z,65.07
2023-02-16T18:51:50.342Z,65.70
2023-02-16T18:54:17.625Z,68.07
2023-02-16T18:56:45.036Z,68.63
2023-02-16T18:59:13.948Z,69.63
2023-02-16T19:01:41.288Z,69.67
2023-02-16T19:04:08.375Z,69.53
2023-02-16T19:06:35.273Z,69.45
2023-02-16T19:09:02.171Z,72.16
2023-02-16T19:11:54.316Z,73.29
2023-02-16T19:14:23.625Z,72.97
2023-02-16T19:16:50.513Z,74.62
2023-02-16T19:19:17.725Z,74.24
2023-02-16T19:21:45.071Z,75.80
2023-02-16T19:24:12.530Z,76.54
2023-02-16T19:26:40.060Z,74.62
2023-02-16T19:29:07.294Z,75.84
2023-02-16T19:31:35.990Z,76.44
2023-02-16T19:34:03.063Z,76.14
2023-02-16T19:40:54.410Z,76.27
2023-02-16T19:47:53.106Z,77.01
2023-02-16T19:50:34.690Z,77.07
2023-02-16T19:53:01.804Z,76.60
2023-02-16T19:55:28.674Z,78.48
2023-02-16T19:57:55.562Z,79.65
2023-02-16T20:00:43.623Z,79.66
2023-02-16T20:03:12.075Z,79.64
2023-02-16T20:05:41.332Z,78.22
2023-02-16T20:08:20.623Z,78.71
2023-02-16T20:10:47.471Z,78.64
2023-02-16T20:13:33.493Z,78.99
2023-02-16T20:16:01.524Z,79.58
2023-02-16T20:18:34.058Z,79.81
2023-02-16T20:21:04.685Z,79.71
2023-02-16T20:23:32.043Z,80.21
2023-02-16T20:26:26.545Z,80.18
2023-02-16T20:29:38.382Z,80.09
2023-02-16T20:35:39.379Z,79.30
2023-02-16T20:38:07.676Z,79.52
2023-02-16T20:40:36.540Z,79.67
2023-02-16T20:43:04.390Z,79.65
2023-02-16T20:45:32.007Z,78.53
2023-02-16T20:47:59.094Z,79.12
2023-02-16T20:50:25.932Z,79.50
2023-02-16T20:52:54.152Z,79.06
2023-02-16T20:55:21.411Z,78.15
2023-02-16T20:57:48.511Z,76.56
2023-02-16T21:00:20.660Z,76.38
2023-02-16T21:02:55.115Z,77.30
2023-02-16T21:08:21.012Z,78.08
2023-02-16T21:11:31.824Z,78.34
2023-02-16T21:13:59.201Z,78.15
2023-02-16T21:16:26.335Z,78.32
2023-02-16T21:18:53.334Z,78.73
2023-02-16T21:21:20.785Z,79.45
2023-02-16T21:23:51.848Z,79.21
2023-02-16T21:35:05.430Z,76.76
2023-02-16T21:37:58.819Z,76.04
2023-02-16T21:40:27.610Z,77.88
2023-02-16T21:43:18.058Z,76.65
2023-02-16T21:45:45.713Z,78.02
2023-02-16T21:53:07.037Z,78.85
2023-02-16T21:55:57.817Z,77.41
2023-02-16T21:58:25.632Z,74.98
2023-02-16T22:00:53.690Z,74.60
2023-02-16T22:03:22.216Z,74.23
2023-02-16T22:05:49.067Z,73.25
2023-02-16T22:08:15.941Z,72.75
2023-02-16T22:10:42.785Z,72.49
2023-02-16T22:13:11.353Z,71.97
2023-02-16T22:16:10.856Z,73.22
2023-02-16T22:18:42.038Z,71.46
2023-02-16T22:21:30.473Z,71.85
2023-02-16T22:23:59.932Z,72.06
2023-02-16T22:26:41.400Z,72.70
2023-02-16T22:29:38.021Z,73.43
2023-02-16T22:32:05.228Z,73.26
2023-02-16T22:34:32.363Z,73.04
2023-02-16T22:36:59.240Z,72.73
2023-02-16T22:39:26.066Z,71.90
2023-02-16T22:41:52.927Z,72.24
2023-02-16T22:47:36.388Z,70.81
2023-02-16T22:54:18.819Z,68.72
2023-02-16T22:56:45.687Z,68.86
2023-02-16T22:59:13.036Z,69.72
2023-02-16T23:01:40.055Z,67.32
2023-02-16T23:04:14.037Z,67.65
2023-02-16T23:06:42.828Z,68.61
2023-02-16T23:09:15.812Z,67.46
2023-02-16T23:11:43.153Z,67.34
2023-02-16T23:14:10.290Z,67.45
2023-02-16T23:17:10.418Z,67.20
2023-02-16T23:19:38.610Z,68.53
2023-02-16T23:30:13.933Z,68.13
2023-02-16T23:32:40.690Z,67.62
2023-02-16T23:35:08.943Z,67.69
2023-02-16T23:37:35.945Z,67.18
2023-02-16T23:40:02.761Z,67.29
2023-02-16T23:42:29.694Z,67.21
2023-02-16T23:45:02.357Z,67.40
2023-02-16T23:47:29.816Z,67.99
2023-02-16T23:49:56.645Z,67.28
2023-02-16T23:52:24.813Z,67.75
2023-02-16T23:54:52.097Z,68.64
